TAF Text Data
IDs:
Format:
Raw Decoded Include METAR

Data at: 2154 UTC 01 Oct 2022

TAF WPDL 011701Z 0118/0206 16005KT 9999 SCT025 BKN045
  FM012100 VRB05KT 9999 -SHRA SCT014 SCT045
  PROB30
  TEMPO 0202/0206 VRB25G35KT 1000 TSRA BKN010 SCT040CB